Time;durP1;ratioP1;P1;durP2;ratioP2;P2;SDS_P1;SDS_P2;PMS_P1;PMS_P2;Temp;Humidity;BMP_temperature;BMP_pressure;BME280_temperature;BME280_humidity;BME280_pressure;Samples;Min_cycle;Max_cycle;Signal;HPM_P1;HPM_P2
2021/06/26 00:00:53;;;;;;;20.30;5.93;;;;;;;24.36;64.33;101131.25;5032588;28;20165;-87
2021/06/26 00:03:19;;;;;;;23.43;6.20;;;;;;;23.23;64.83;100914.28;5032236;28;20209;-93
2021/06/26 00:05:45;;;;;;;23.10;5.67;;;;;;;23.63;64.89;100978.81;5015534;28;20173;-93
2021/06/26 00:08:10;;;;;;;20.10;5.57;;;;;;;20.40;64.92;100491.78;5015498;28;20179;-93
2021/06/26 00:10:36;;;;;;;22.90;5.73;;;;;;;20.02;64.56;100438.84;5015271;28;20181;-93
2021/06/26 00:13:02;;;;;;;25.83;5.63;;;;;;;22.25;65.16;100791.22;5015198;28;20169;-93
2021/06/26 00:15:27;;;;;;;22.77;5.40;;;;;;;21.53;65.39;100661.16;5031733;28;20177;-93
2021/06/26 00:17:53;;;;;;;20.67;5.70;;;;;;;22.47;64.31;100842.16;5031486;28;20168;-87
2021/06/26 00:20:18;;;;;;;17.63;5.53;;;;;;;20.71;65.14;100571.31;5014981;28;20192;-93
2021/06/26 00:22:44;;;;;;;21.57;6.10;;;;;;;21.23;64.82;100656.44;5031404;28;20189;-93
2021/06/26 00:25:10;;;;;;;19.17;5.37;;;;;;;21.19;65.34;100644.63;5015003;28;20671;-93
2021/06/26 00:27:36;;;;;;;19.13;4.87;;;;;;;21.64;65.56;100691.47;5015062;28;20181;-87
2021/06/26 00:30:01;;;;;;;18.80;5.77;;;;;;;21.12;65.23;100628.94;5014709;28;20212;-93
2021/06/26 00:32:27;;;;;;;16.53;5.40;;;;;;;20.71;65.72;100576.16;5031454;28;20158;-93
2021/06/26 00:34:52;;;;;;;22.37;5.50;;;;;;;19.48;63.79;100403.38;5014350;28;20636;-93
2021/06/26 00:37:18;;;;;;;17.53;5.70;;;;;;;20.36;65.15;100558.81;5014901;28;20165;-93
2021/06/26 00:39:43;;;;;;;22.80;5.53;;;;;;;21.08;64.27;100645.31;5014987;28;20647;-93
2021/06/26 00:42:09;;;;;;;24.67;5.93;;;;;;;19.74;64.46;100499.69;5014654;28;20311;-93
2021/06/26 00:44:35;;;;;;;20.27;5.20;;;;;;;23.75;65.38;101100.00;5027620;28;20704;-94
2021/06/26 00:47:02;;;;;;;23.77;5.83;;;;;;;23.18;64.93;100997.78;5011275;28;20201;-93
2021/06/26 00:49:27;;;;;;;19.40;4.93;;;;;;;21.89;65.02;100865.47;5011272;28;20252;-92
2021/06/26 00:51:53;;;;;;;22.60;6.73;;;;;;;21.81;65.06;100833.38;5011370;28;20644;-92
2021/06/26 00:54:18;;;;;;;23.90;5.90;;;;;;;22.93;65.34;100981.00;5027398;28;20189;-86
2021/06/26 00:56:44;;;;;;;20.70;5.87;;;;;;;20.80;65.20;100668.91;5011136;28;20177;-92
2021/06/26 00:59:10;;;;;;;19.97;5.63;;;;;;;19.77;65.59;100538.06;5027356;28;20189;-86
2021/06/26 01:01:35;;;;;;;18.53;5.30;;;;;;;22.18;66.56;100913.88;5010926;28;20209;-92
2021/06/26 01:04:01;;;;;;;20.33;5.53;;;;;;;22.25;66.98;100909.78;5027265;28;20579;-93
2021/06/26 01:06:27;;;;;;;19.57;5.73;;;;;;;19.87;67.76;100531.78;5027712;28;20166;-88
2021/06/26 01:08:52;;;;;;;20.87;5.13;;;;;;;20.46;68.11;100610.84;5010874;28;20185;-93
2021/06/26 01:11:18;;;;;;;17.63;4.97;;;;;;;20.54;67.94;100683.06;5027495;28;20178;-93
2021/06/26 01:13:43;;;;;;;19.97;5.50;;;;;;;20.64;68.44;100701.31;5027652;28;20188;-93
2021/06/26 01:16:09;;;;;;;18.50;5.67;;;;;;;20.39;68.08;100639.41;5027850;28;20550;-93
2021/06/26 01:18:34;;;;;;;20.80;5.50;;;;;;;20.69;68.05;100666.81;5010890;28;20178;-93
2021/06/26 01:21:00;;;;;;;26.30;6.10;;;;;;;20.79;68.24;100693.50;5027617;28;20174;-92
2021/06/26 01:23:26;;;;;;;17.33;5.63;;;;;;;20.15;68.23;100602.38;5027381;28;20238;-87
2021/06/26 01:25:52;;;;;;;21.10;6.00;;;;;;;20.36;67.78;100632.00;5027125;28;20633;-93
2021/06/26 01:28:18;;;;;;;18.67;5.80;;;;;;;21.05;67.11;100764.69;5010736;28;20188;-93
2021/06/26 01:30:43;;;;;;;16.83;5.90;;;;;;;19.96;66.64;100585.03;5027085;28;20173;-93
2021/06/26 01:33:09;;;;;;;16.97;5.90;;;;;;;19.94;67.28;100617.75;5010373;28;20185;-87
2021/06/26 01:35:34;;;;;;;23.03;5.67;;;;;;;19.43;67.73;100567.88;5026998;28;20558;-93
2021/06/26 01:38:03;;;;;;;22.87;6.17;;;;;;;19.95;67.91;100636.94;5010647;28;20186;-93
2021/06/26 01:40:28;;;;;;;19.87;5.67;;;;;;;19.17;68.42;100555.03;5010526;28;20186;-93
2021/06/26 01:42:54;;;;;;;17.83;5.67;;;;;;;19.81;68.22;100668.75;5010298;28;20308;-93
2021/06/26 01:45:20;;;;;;;20.13;6.10;;;;;;;19.48;68.45;100612.16;5037857;28;20237;-93
2021/06/26 01:47:49;;;;;;;19.03;5.60;;;;;;;21.65;68.84;100955.31;5029261;28;20173;-93
2021/06/26 01:50:16;;;;;;;24.03;7.10;;;;;;;19.47;69.27;100661.19;5030795;28;20181;-88
2021/06/26 01:52:43;;;;;;;18.27;6.10;;;;;;;18.97;70.26;100661.75;5046566;28;20173;-92
2021/06/26 01:55:09;;;;;;;22.57;6.97;;;;;;;20.08;70.41;100834.28;5013923;28;20651;-87
2021/06/26 01:57:35;;;;;;;18.73;6.67;;;;;;;19.60;70.89;100764.84;5046472;28;20181;-92
2021/06/26 02:00:01;;;;;;;19.63;6.80;;;;;;;18.75;71.04;100631.31;5030218;28;20174;-87
2021/06/26 02:02:26;;;;;;;21.03;6.80;;;;;;;20.33;71.46;100872.19;5013336;28;20278;-93
2021/06/26 02:04:52;;;;;;;17.07;6.10;;;;;;;19.15;71.33;100670.72;5013484;28;20173;-91
2021/06/26 02:07:17;;;;;;;19.17;6.07;;;;;;;17.48;71.50;100398.56;5013912;28;20561;-92
2021/06/26 02:09:43;;;;;;;20.97;6.37;;;;;;;21.13;71.59;100957.38;5013783;28;20547;-88
2021/06/26 02:12:09;;;;;;;14.63;6.23;;;;;;;20.95;72.52;100959.75;5013347;28;20184;-93
2021/06/26 02:14:35;;;;;;;22.63;6.80;;;;;;;19.88;72.64;100848.31;5013750;28;20196;-88
2021/06/26 02:17:00;;;;;;;23.10;7.20;;;;;;;18.47;73.06;100630.09;5013233;28;20173;-93
2021/06/26 02:19:26;;;;;;;19.03;6.67;;;;;;;20.51;72.55;100931.78;5012728;28;20208;-93
2021/06/26 02:21:51;;;;;;;20.33;6.40;;;;;;;18.51;72.27;100591.41;5012904;28;20676;-92
2021/06/26 02:24:17;;;;;;;18.60;6.43;;;;;;;18.75;72.36;100638.97;5012703;28;20180;-87
2021/06/26 02:26:42;;;;;;;19.70;6.63;;;;;;;19.92;72.59;100805.91;5012689;28;20560;-93
2021/06/26 02:29:08;;;;;;;26.30;7.00;;;;;;;17.34;73.47;100475.72;5012828;28;20181;-94
2021/06/26 02:31:33;;;;;;;21.33;6.33;;;;;;;18.16;74.12;100654.28;5029437;28;20156;-93
2021/06/26 02:33:59;;;;;;;19.80;6.47;;;;;;;17.77;73.63;100587.06;5012588;28;20189;-93
2021/06/26 02:36:24;;;;;;;17.30;6.17;;;;;;;17.57;74.23;100513.34;5013133;28;20193;-87
2021/06/26 02:38:50;;;;;;;19.87;7.07;;;;;;;18.50;74.30;100710.53;5029386;28;20180;-92
2021/06/26 02:41:17;;;;;;;16.37;6.80;;;;;;;17.70;75.03;100561.44;5012618;28;20219;-93
2021/06/26 02:43:42;;;;;;;20.17;7.17;;;;;;;17.52;75.53;100546.84;5012951;28;20251;-92
2021/06/26 02:46:08;;;;;;;24.27;6.83;;;;;;;18.38;74.98;100655.44;5009278;28;20241;-93
2021/06/26 02:48:34;;;;;;;15.60;6.17;;;;;;;19.48;75.84;100816.53;5009109;28;20200;-93
2021/06/26 02:50:59;;;;;;;22.03;6.63;;;;;;;18.79;75.40;100695.69;5009279;28;20185;-93
2021/06/26 02:53:25;;;;;;;20.97;6.30;;;;;;;19.52;75.87;100871.31;5009037;28;20186;-93
2021/06/26 02:55:55;;;;;;;24.03;7.00;;;;;;;20.42;76.07;100998.72;5025697;28;20193;-93
2021/06/26 02:58:22;;;;;;;24.47;7.27;;;;;;;17.77;75.09;100582.72;5011457;28;20315;-93
2021/06/26 03:00:47;;;;;;;23.93;6.43;;;;;;;21.15;74.44;101045.03;5029912;28;20176;-92
2021/06/26 03:03:13;;;;;;;18.53;6.60;;;;;;;17.96;74.68;100587.66;5013387;28;20200;-92
2021/06/26 03:05:38;;;;;;;17.60;6.53;;;;;;;17.98;73.90;100527.03;5029892;28;20173;-92
2021/06/26 03:08:04;;;;;;;16.70;5.77;;;;;;;19.81;73.39;100826.22;5029933;28;20186;-94
2021/06/26 03:10:30;;;;;;;20.10;6.87;;;;;;;16.90;73.01;100340.50;5029451;28;20188;-93
2021/06/26 03:12:55;;;;;;;18.97;6.20;;;;;;;17.96;72.87;100511.19;5012955;28;20185;-87
2021/06/26 03:15:21;;;;;;;22.30;5.83;;;;;;;17.97;72.79;100516.28;5012833;28;20180;-93
2021/06/26 03:17:46;;;;;;;19.50;6.60;;;;;;;20.21;72.82;100839.56;5012948;28;20174;-92
2021/06/26 03:20:12;;;;;;;20.00;6.57;;;;;;;18.35;72.83;100591.13;5012964;28;20192;-87
2021/06/26 03:22:37;;;;;;;22.03;5.50;;;;;;;18.57;71.87;100585.88;5029257;28;20225;-87
2021/06/26 03:25:09;;;;;;;25.67;5.80;;;;;;;19.18;71.35;100675.34;5029217;28;20185;-93
2021/06/26 03:27:35;;;;;;;18.50;5.77;;;;;;;18.02;70.66;100519.19;5029207;28;20173;-87
2021/06/26 03:30:00;;;;;;;18.90;6.03;;;;;;;21.13;70.86;100945.34;5012811;28;20189;-93
2021/06/26 03:32:26;;;;;;;18.40;6.40;;;;;;;18.20;70.73;100509.78;5012522;28;20166;-93
2021/06/26 03:34:51;;;;;;;22.00;6.23;;;;;;;21.20;70.61;100975.91;5012596;28;20200;-93
2021/06/26 03:37:17;;;;;;;18.73;5.93;;;;;;;17.97;70.75;100484.69;5029074;28;20169;-87
2021/06/26 03:39:42;;;;;;;23.90;5.97;;;;;;;18.43;71.60;100593.03;5029111;28;20173;-93
2021/06/26 03:42:09;;;;;;;18.70;6.20;;;;;;;20.17;71.98;100870.72;5029233;28;20201;-92
2021/06/26 03:44:35;;;;;;;20.67;6.17;;;;;;;20.90;71.36;100932.28;5033707;28;20252;-93
2021/06/26 03:47:00;;;;;;;22.17;6.57;;;;;;;17.36;71.70;100386.34;5015721;28;20199;-92
2021/06/26 03:49:28;;;;;;;22.73;6.30;;;;;;;20.71;71.49;100874.69;5015640;28;20582;-95
2021/06/26 03:51:53;;;;;;;16.93;5.27;;;;;;;21.24;70.28;100954.66;5016109;28;20200;-87
2021/06/26 03:54:19;;;;;;;20.30;5.33;;;;;;;17.76;69.75;100419.38;5032416;28;20173;-92
2021/06/26 03:56:44;;;;;;;22.60;6.03;;;;;;;20.18;70.39;100810.38;5015536;28;20176;-86
2021/06/26 03:59:10;;;;;;;18.70;5.37;;;;;;;21.29;70.37;100992.66;5015731;28;20656;-93
2021/06/26 04:01:35;;;;;;;14.57;5.50;;;;;;;22.06;70.30;101123.19;5015506;28;20180;-93
2021/06/26 04:04:01;;;;;;;23.27;5.63;;;;;;;18.22;69.79;100495.28;5015774;28;20188;-92
2021/06/26 04:06:26;;;;;;;25.73;5.30;;;;;;;19.32;70.21;100705.44;5015907;28;20177;-93
2021/06/26 04:08:52;;;;;;;16.93;4.63;;;;;;;19.34;69.51;100666.38;5015467;28;20185;-93
2021/06/26 04:11:17;;;;;;;18.00;5.63;;;;;;;19.97;69.05;100786.31;5031177;28;20280;-92
2021/06/26 04:13:43;;;;;;;22.07;5.27;;;;;;;20.78;69.41;100880.66;5031534;28;20655;-93
2021/06/26 04:16:09;;;;;;;22.53;5.30;;;;;;;18.88;68.80;100581.22;5015704;28;20180;-93
2021/06/26 04:18:34;;;;;;;26.73;5.07;;;;;;;19.78;68.90;100723.16;5015277;28;20204;-93
2021/06/26 04:21:00;;;;;;;24.63;6.07;;;;;;;19.60;68.63;100655.97;5014965;28;20189;-94
2021/06/26 04:23:25;;;;;;;22.53;5.47;;;;;;;19.83;67.92;100690.75;5015109;28;20296;-93
2021/06/26 04:25:51;;;;;;;21.60;5.50;;;;;;;21.24;67.58;100894.72;5048193;28;20168;-92
2021/06/26 04:28:17;;;;;;;19.20;5.50;;;;;;;21.69;68.04;100936.91;5015242;28;20181;-93
2021/06/26 04:30:42;;;;;;;20.10;5.30;;;;;;;18.81;67.85;100480.56;5015118;28;20236;-87
2021/06/26 04:33:08;;;;;;;21.00;5.53;;;;;;;20.31;65.99;100674.94;5014831;28;20182;-92
2021/06/26 04:35:34;;;;;;;21.30;5.60;;;;;;;22.03;65.87;100969.72;5031227;28;20192;-92
2021/06/26 04:38:00;;;;;;;21.17;5.53;;;;;;;22.26;66.67;100999.63;5014716;28;20177;-92
2021/06/26 04:40:25;;;;;;;19.07;5.53;;;;;;;19.48;66.58;100606.53;5014701;28;20185;-93
2021/06/26 04:42:52;;;;;;;24.43;6.10;;;;;;;21.43;66.77;100819.75;5014803;28;20217;-92
2021/06/26 04:45:18;;;;;;;23.13;6.00;;;;;;;23.09;67.08;101062.25;5011555;28;20229;-92
2021/06/26 04:47:43;;;;;;;25.80;5.80;;;;;;;22.69;66.49;101031.50;5011121;28;20180;-93
2021/06/26 04:50:09;;;;;;;18.83;5.07;;;;;;;21.73;66.23;100801.25;5027855;28;20197;-93
2021/06/26 04:52:35;;;;;;;20.90;5.83;;;;;;;23.50;65.82;101071.94;5011056;28;20178;-92
2021/06/26 04:55:02;;;;;;;16.97;5.50;;;;;;;20.81;65.14;100676.09;5010989;28;20192;-92
2021/06/26 04:57:28;;;;;;;24.63;5.70;;;;;;;22.96;66.08;100954.53;5011108;28;20201;-92
2021/06/26 04:59:54;;;;;;;19.50;6.23;;;;;;;24.34;66.40;101170.63;5027691;28;20178;-93
2021/06/26 05:02:19;;;;;;;22.13;6.37;;;;;;;23.21;65.65;101024.28;5010985;28;20224;-87
2021/06/26 05:04:45;;;;;;;18.83;6.10;;;;;;;24.21;65.76;101125.81;5027474;28;20657;-94
2021/06/26 05:07:10;;;;;;;20.60;6.23;;;;;;;23.89;66.14;101073.56;5010676;28;20170;-93
2021/06/26 05:09:36;;;;;;;20.07;5.73;;;;;;;19.77;65.76;100440.44;5010695;28;20178;-93
2021/06/26 05:12:01;;;;;;;19.80;6.00;;;;;;;20.22;65.23;100529.53;5027148;28;20169;-94
2021/06/26 05:14:27;;;;;;;30.23;6.33;;;;;;;23.10;65.60;100991.06;5010702;28;20186;-92
2021/06/26 05:16:52;;;;;;;22.40;5.90;;;;;;;21.81;64.20;100745.94;5010597;28;20180;-93
2021/06/26 05:19:18;;;;;;;23.70;6.40;;;;;;;21.87;64.59;100724.94;5010516;28;20181;-93
2021/06/26 05:21:44;;;;;;;17.93;5.60;;;;;;;24.86;65.22;101186.59;5010761;28;20228;-87
2021/06/26 05:24:09;;;;;;;20.80;5.73;;;;;;;20.74;64.53;100530.91;5010483;28;20192;-91
2021/06/26 05:26:35;;;;;;;18.13;5.87;;;;;;;24.99;65.20;101174.72;5010309;28;20192;-93
2021/06/26 05:29:00;;;;;;;19.37;6.10;;;;;;;20.41;65.10;100477.22;5010360;28;20198;-93
2021/06/26 05:31:26;;;;;;;16.07;5.87;;;;;;;24.62;64.58;101137.44;5026746;28;20200;-87
2021/06/26 05:33:51;;;;;;;20.00;6.33;;;;;;;25.07;64.78;101168.00;5010198;28;20261;-93
2021/06/26 05:36:17;;;;;;;20.90;5.77;;;;;;;22.40;65.87;100798.22;5010164;28;20180;-93
2021/06/26 05:38:43;;;;;;;20.17;6.23;;;;;;;21.35;64.95;100607.28;5010281;28;20181;-92
2021/06/26 05:41:08;;;;;;;20.30;6.00;;;;;;;24.12;66.07;101029.81;5026608;28;20177;-93
2021/06/26 05:43:35;;;;;;;18.20;5.50;;;;;;;22.71;64.85;100800.88;5026464;28;20202;-90
2021/06/26 05:46:00;;;;;;;17.73;6.10;;;;;;;22.32;64.00;100720.16;5043093;28;20231;-93
2021/06/26 05:48:26;;;;;;;25.87;5.87;;;;;;;22.23;63.04;100689.34;5013272;28;20189;-93
2021/06/26 05:50:51;;;;;;;17.73;5.77;;;;;;;21.37;62.16;100545.50;5013476;28;20193;-93
2021/06/26 05:53:20;;;;;;;21.93;5.67;;;;;;;21.60;62.80;100561.22;5013193;28;20185;-93
2021/06/26 05:55:56;;;;;;;22.10;5.90;;;;;;;23.89;63.03;100892.41;5013928;28;20228;-94
2021/06/26 05:58:24;;;;;;;19.67;5.60;;;;;;;25.85;62.56;101152.19;5031334;28;20172;-94
2021/06/26 06:00:49;;;;;;;19.80;5.83;;;;;;;23.05;62.02;100733.81;5013144;28;20201;-92
2021/06/26 06:03:15;;;;;;;16.47;6.00;;;;;;;25.21;62.29;101035.69;5013164;28;20726;-93
2021/06/26 06:05:40;;;;;;;24.03;5.90;;;;;;;22.72;62.00;100666.06;5013178;28;20169;-93
2021/06/26 06:08:06;;;;;;;22.57;5.80;;;;;;;23.24;62.04;100729.97;5013108;28;20185;-94
2021/06/26 06:10:32;;;;;;;20.27;5.80;;;;;;;22.16;61.75;100568.50;5013373;28;20184;-93
2021/06/26 06:12:57;;;;;;;18.53;5.67;;;;;;;23.39;61.65;100715.56;5029640;28;20173;-93
2021/06/26 06:15:23;;;;;;;21.77;5.73;;;;;;;24.81;60.97;100942.81;5012888;28;20192;-94
2021/06/26 06:17:48;;;;;;;20.57;5.27;;;;;;;24.79;60.93;100939.75;5046158;28;20174;-93
2021/06/26 06:20:14;;;;;;;18.67;5.13;;;;;;;21.89;61.45;100507.16;5013112;28;20184;-93
2021/06/26 06:22:39;;;;;;;18.97;4.50;;;;;;;23.73;60.84;100759.41;5029450;28;20212;-84
2021/06/26 06:25:07;;;;;;;16.37;5.30;;;;;;;22.84;59.70;100586.41;5013145;28;20181;-93
2021/06/26 06:27:35;;;;;;;19.20;5.10;;;;;;;23.70;57.59;100718.78;5029777;28;20184;-93
2021/06/26 06:30:00;;;;;;;19.33;4.73;;;;;;;22.89;56.89;100598.97;5029811;28;20181;-93
2021/06/26 06:32:26;;;;;;;18.87;4.40;;;;;;;23.86;55.98;100742.66;5012869;28;20168;-92
2021/06/26 06:34:51;;;;;;;18.33;4.30;;;;;;;24.00;55.81;100781.22;5012725;28;20185;-93
2021/06/26 06:37:17;;;;;;;12.93;3.90;;;;;;;24.04;53.08;100754.16;5012705;28;20219;-93
2021/06/26 06:39:43;;;;;;;16.27;4.23;;;;;;;24.21;52.27;100774.66;5029131;28;20204;-93
2021/06/26 06:42:09;;;;;;;18.27;4.20;;;;;;;25.22;51.20;100935.88;5028955;28;20205;-92
2021/06/26 06:44:36;;;;;;;21.30;4.50;;;;;;;27.03;53.43;101211.25;5025495;28;20241;-93
2021/06/26 06:47:02;;;;;;;17.27;4.80;;;;;;;26.59;53.99;101124.31;5009585;28;20228;-87
2021/06/26 06:49:27;;;;;;;21.37;4.70;;;;;;;26.39;53.74;101082.09;5026061;28;20213;-93
2021/06/26 06:51:53;;;;;;;17.00;3.97;;;;;;;25.97;52.97;100999.59;5026326;28;20197;-93
2021/06/26 06:54:18;;;;;;;16.50;4.27;;;;;;;24.45;52.35;100760.63;5009653;28;20177;-88
2021/06/26 06:56:44;;;;;;;18.43;3.90;;;;;;;25.13;51.77;100827.69;5025666;28;20178;-92
2021/06/26 06:59:10;;;;;;;17.27;4.43;;;;;;;24.60;52.37;100748.97;5009307;28;20185;-92
2021/06/26 07:01:35;;;;;;;17.27;4.03;;;;;;;25.01;51.87;100780.84;5009337;28;20208;-87
2021/06/26 07:04:01;;;;;;;22.67;5.10;;;;;;;25.19;51.86;100808.53;5026055;28;20669;-92
2021/06/26 07:06:26;;;;;;;18.93;4.00;;;;;;;25.11;50.65;100776.38;5025488;28;20169;-87
2021/06/26 07:08:52;;;;;;;17.63;4.33;;;;;;;26.67;50.33;101022.91;5009383;28;20640;-93
2021/06/26 07:11:22;;;;;;;15.47;4.10;;;;;;;25.63;50.64;100817.44;5009943;28;20232;-93
2021/06/26 07:13:47;;;;;;;17.67;4.00;;;;;;;25.54;51.85;100768.78;5026037;28;20166;-87
2021/06/26 07:16:13;;;;;;;17.77;4.00;;;;;;;25.47;51.81;100760.84;5030234;28;20173;-91
2021/06/26 07:18:38;;;;;;;16.52;3.90;;;;;;;25.45;49.74;100771.97;5034372;28;20170;-86
2021/06/26 07:21:04;;;;;;;18.73;3.97;;;;;;;24.68;50.47;100594.09;5033558;28;20178;-86
2021/06/26 07:23:30;;;;;;;19.27;4.38;;;;;;;25.67;50.76;100763.97;5010509;28;20240;-92
2021/06/26 07:25:55;;;;;;;13.67;3.90;;;;;;;26.70;51.36;100884.59;5009161;28;20197;-93
2021/06/26 07:28:21;;;;;;;18.23;4.77;;;;;;;25.84;52.23;100777.97;5008819;28;20166;-87
2021/06/26 07:30:46;;;;;;;17.73;4.30;;;;;;;25.69;51.25;100772.72;5030377;28;20181;-90
2021/06/26 07:33:12;;;;;;;25.30;4.70;;;;;;;24.72;51.57;100639.91;5036852;28;20185;-85
2021/06/26 07:35:37;;;;;;;22.98;4.78;;;;;;;24.77;52.10;100622.09;5026557;28;20189;-91
2021/06/26 07:38:03;;;;;;;19.45;4.07;;;;;;;26.12;52.70;100767.06;5008628;28;20182;-93
2021/06/26 07:40:30;;;;;;;19.67;5.15;;;;;;;24.55;53.06;100565.59;5009008;28;20190;-87
2021/06/26 07:42:55;;;;;;;22.15;4.35;;;;;;;25.06;52.34;100605.00;5009026;28;20301;-92
2021/06/26 07:45:21;;;;;;;19.45;4.57;;;;;;;26.30;51.95;100795.47;5037907;28;20711;-87
2021/06/26 07:47:46;;;;;;;17.75;4.55;;;;;;;28.57;50.97;101092.38;5015810;28;20235;-89
2021/06/26 07:50:12;;;;;;;15.10;4.00;;;;;;;28.59;51.67;101067.69;5015621;28;20200;-92
2021/06/26 07:52:38;;;;;;;15.75;4.13;;;;;;;26.26;51.21;100726.81;5015945;28;20204;-91
2021/06/26 07:55:04;;;;;;;16.35;4.53;;;;;;;28.60;51.08;101088.41;5015794;28;20189;-93
2021/06/26 07:57:30;;;;;;;16.52;4.63;;;;;;;25.61;51.56;100615.69;5015929;28;20173;-92
2021/06/26 07:59:56;;;;;;;18.23;4.68;;;;;;;25.79;51.00;100605.66;5031922;28;20196;-87
2021/06/26 08:02:21;;;;;;;16.77;4.53;;;;;;;28.42;51.20;100998.03;5015443;28;20253;-87
2021/06/26 08:04:47;;;;;;;18.40;4.75;;;;;;;27.63;51.14;100851.09;5015439;28;20216;-93
2021/06/26 08:07:12;;;;;;;22.25;5.00;;;;;;;27.22;50.20;100777.53;5015877;28;20177;-86
2021/06/26 08:09:38;;;;;;;21.00;4.90;;;;;;;27.72;50.06;100842.09;5025641;28;20196;-85
2021/06/26 08:12:04;;;;;;;20.77;4.75;;;;;;;27.15;50.21;100748.94;5040303;28;20212;-89
2021/06/26 08:14:30;;;;;;;17.58;4.60;;;;;;;26.48;51.12;100646.16;5043111;28;20196;-89
2021/06/26 08:16:55;;;;;;;17.50;4.35;;;;;;;27.38;49.22;100767.94;5041682;28;20145;-93
2021/06/26 08:19:21;;;;;;;15.15;4.55;;;;;;;28.86;49.92;100975.09;5019867;28;20185;-87
2021/06/26 08:21:47;;;;;;;21.13;5.28;;;;;;;28.03;49.40;100836.34;5018601;28;20215;-92
2021/06/26 08:24:13;;;;;;;19.15;5.35;;;;;;;27.73;48.75;100746.84;5020207;28;20193;-87
2021/06/26 08:26:39;;;;;;;16.70;5.38;;;;;;;26.47;48.80;100534.56;5036116;28;20189;-87
2021/06/26 08:29:04;;;;;;;21.40;5.13;;;;;;;28.04;48.38;100738.16;5019147;28;20184;-93
2021/06/26 08:31:30;;;;;;;19.45;5.00;;;;;;;30.17;48.89;101059.03;5033911;28;20185;-93
2021/06/26 08:33:56;;;;;;;16.88;4.78;;;;;;;30.10;48.54;101071.13;5015192;28;20189;-92
2021/06/26 08:36:21;;;;;;;16.10;4.55;;;;;;;29.55;49.24;100998.22;5031217;28;20173;-93
2021/06/26 08:38:47;;;;;;;19.50;5.20;;;;;;;28.08;49.60;100717.88;5014919;28;20185;-87
2021/06/26 08:41:12;;;;;;;20.50;5.40;;;;;;;26.88;47.88;100531.25;5015178;28;20173;-87
2021/06/26 08:43:38;;;;;;;22.42;5.13;;;;;;;27.17;46.35;100510.22;5014554;28;20216;-93
2021/06/26 08:46:03;;;;;;;16.13;5.00;;;;;;;29.88;46.24;100925.97;5011170;28;20229;-87
2021/06/26 08:48:30;;;;;;;22.33;4.75;;;;;;;27.89;46.14;100615.50;5010997;28;20205;-93
2021/06/26 08:50:56;;;;;;;21.38;4.80;;;;;;;28.07;45.50;100610.94;5027748;28;20232;-87
2021/06/26 08:53:22;;;;;;;23.63;4.95;;;;;;;27.91;44.68;100587.25;5011255;28;20177;-92
2021/06/26 08:55:52;;;;;;;20.70;4.43;;;;;;;30.80;44.55;101017.53;5010794;28;20190;-92
2021/06/26 08:58:18;;;;;;;18.50;4.93;;;;;;;28.75;45.04;100715.78;5011639;28;20180;-92
2021/06/26 09:00:43;;;;;;;24.20;5.38;;;;;;;27.91;44.99;100597.84;5027372;28;20181;-90
2021/06/26 09:03:12;;;;;;;22.60;5.00;;;;;;;31.26;46.37;101088.03;5010669;28;20711;-92
2021/06/26 09:05:38;;;;;;;22.55;4.90;;;;;;;29.62;46.06;100796.84;5027343;28;20249;-92
2021/06/26 09:08:11;;;;;;;17.98;4.43;;;;;;;29.44;45.00;100809.25;5043620;28;20186;-86
2021/06/26 09:10:37;;;;;;;16.98;4.45;;;;;;;30.66;42.94;101019.75;5027184;28;20233;-90
2021/06/26 09:13:28;;;;;;;19.58;4.10;;;;;;;30.57;42.39;100945.91;5027215;28;20162;-92
2021/06/26 09:16:08;;;;;;;19.88;4.00;;;;;;;31.01;40.91;101021.88;5027253;28;20241;-93
2021/06/26 09:18:44;;;;;;;22.88;4.20;;;;;;;30.53;41.66;100939.00;5010718;28;20675;-92
2021/06/26 09:21:35;;;;;;;18.90;3.92;;;;;;;31.17;41.57;101054.94;5026812;28;20227;-92
2021/06/26 09:24:06;;;;;;;19.83;4.32;;;;;;;30.86;40.89;100976.00;5011661;28;20193;-93
2021/06/26 09:26:40;;;;;;;19.25;4.25;;;;;;;31.29;40.75;101036.16;5010325;28;20181;-91
2021/06/26 09:29:17;;;;;;;21.20;4.35;;;;;;;31.28;41.93;101008.81;5010334;28;20184;-87
2021/06/26 09:31:53;;;;;;;15.02;4.22;;;;;;;31.75;42.75;101059.97;5026872;28;20168;-91
2021/06/26 09:34:19;;;;;;;16.25;4.38;;;;;;;30.95;42.33;100920.31;5026374;28;20189;-87
2021/06/26 09:36:45;;;;;;;14.52;3.63;;;;;;;29.01;40.96;100641.47;5010235;28;20188;-92
2021/06/26 09:39:11;;;;;;;20.33;4.15;;;;;;;30.87;38.74;100888.06;5010382;28;20190;-92
2021/06/26 09:41:39;;;;;;;19.85;4.30;;;;;;;30.02;39.81;100758.03;5010250;28;20597;-86
2021/06/26 09:44:12;;;;;;;22.33;4.25;;;;;;;28.57;41.09;100545.72;5028160;28;20196;-92
2021/06/26 09:46:46;;;;;;;17.95;3.72;;;;;;;30.85;40.88;100891.50;5049812;28;20176;-91
2021/06/26 09:49:11;;;;;;;15.40;3.58;;;;;;;28.84;40.40;100561.28;5049562;28;20184;-91
2021/06/26 09:51:37;;;;;;;18.60;4.05;;;;;;;29.01;39.19;100646.44;5049928;28;20164;-86
2021/06/26 09:54:05;;;;;;;19.70;4.47;;;;;;;28.56;39.83;100518.50;5049383;28;20192;-92
2021/06/26 09:56:40;;;;;;;20.83;3.75;;;;;;;30.52;40.06;100785.91;5049417;28;20189;-91
2021/06/26 09:59:06;;;;;;;18.08;3.97;;;;;;;30.29;40.22;100742.19;5049333;28;20192;-87
2021/06/26 10:01:36;;;;;;;17.70;4.07;;;;;;;31.01;40.72;100858.72;5049376;28;20597;-92
2021/06/26 10:04:03;;;;;;;18.55;4.53;;;;;;;31.99;40.39;100984.94;5032713;28;20593;-91
2021/06/26 10:06:29;;;;;;;16.08;4.25;;;;;;;31.83;40.34;100960.47;5048947;28;20567;-87
2021/06/26 10:08:55;;;;;;;18.67;4.35;;;;;;;31.49;39.11;100885.53;5031910;28;20180;-92
2021/06/26 10:11:20;;;;;;;22.40;4.70;;;;;;;32.08;38.67;101005.16;5032722;28;20183;-91
2021/06/26 10:13:46;;;;;;;21.23;4.57;;;;;;;31.59;40.45;100884.38;5049431;28;20157;-86
2021/06/26 10:16:11;;;;;;;19.75;4.90;;;;;;;31.19;40.53;100796.72;5032731;28;20768;-92
2021/06/26 10:18:41;;;;;;;19.48;4.22;;;;;;;30.62;40.13;100713.28;5049113;28;20173;-92
2021/06/26 10:21:06;;;;;;;17.20;4.07;;;;;;;32.23;39.72;100958.50;5032374;28;20342;-87
2021/06/26 10:23:33;;;;;;;17.52;4.20;;;;;;;30.69;39.01;100737.53;5032489;28;20216;-93
2021/06/26 10:25:59;;;;;;;19.80;4.35;;;;;;;29.50;40.36;100510.84;5049289;28;20179;-86
2021/06/26 10:28:24;;;;;;;16.02;4.40;;;;;;;31.59;40.16;100850.00;5032570;28;20176;-87
2021/06/26 10:31:11;;;;;;;17.52;3.80;;;;;;;32.31;39.86;100930.63;5049217;28;20187;-93
2021/06/26 10:33:37;;;;;;;16.77;4.30;;;;;;;32.60;38.77;100946.22;5033686;28;20241;-92
2021/06/26 10:36:03;;;;;;;17.77;4.28;;;;;;;31.29;39.95;100720.41;5032433;28;20180;-92
2021/06/26 10:38:44;;;;;;;18.08;3.90;;;;;;;32.30;37.67;100888.94;5049440;28;20183;-87
2021/06/26 10:41:20;;;;;;;21.17;4.03;;;;;;;32.85;38.26;100999.53;5032350;28;20271;-86
2021/06/26 10:43:59;;;;;;;18.00;4.00;;;;;;;33.03;39.20;100981.13;5032308;28;20199;-93
2021/06/26 10:46:25;;;;;;;14.80;3.55;;;;;;;33.00;38.97;100941.28;5025816;28;20185;-92
2021/06/26 10:49:05;;;;;;;17.88;3.70;;;;;;;33.16;37.17;100955.00;5025928;28;20197;-93
2021/06/26 10:51:42;;;;;;;13.52;3.80;;;;;;;32.91;38.01;100907.47;5009711;28;20304;-92
2021/06/26 10:54:11;;;;;;;17.58;3.88;;;;;;;32.90;36.00;100895.22;5042012;28;20200;-92
2021/06/26 10:56:37;;;;;;;15.85;3.45;;;;;;;33.27;36.77;100948.06;5025775;28;20166;-86
2021/06/26 10:59:14;;;;;;;22.40;4.20;;;;;;;33.22;37.36;100975.63;5025801;28;20212;-92
2021/06/26 11:01:39;;;;;;;17.80;3.38;;;;;;;32.57;37.96;100864.94;5025481;28;20180;-93
2021/06/26 11:04:09;;;;;;;17.00;3.40;;;;;;;33.48;38.59;100949.28;5009071;28;20257;-93
2021/06/26 11:06:35;;;;;;;15.80;3.65;;;;;;;32.95;35.21;100831.09;5025258;28;20181;-86
2021/06/26 11:09:11;;;;;;;13.27;3.55;;;;;;;31.19;35.09;100576.28;5009237;28;20180;-93
2021/06/26 11:11:49;;;;;;;16.58;3.58;;;;;;;33.79;36.41;100944.84;5025544;28;20253;-94
2021/06/26 11:14:18;;;;;;;16.33;3.65;;;;;;;33.10;35.63;100861.78;5009075;28;20186;-86